Overview Statistics Trail Chart Weather Telemetry Raw packets
 

This is the latest recevied weather packets stored in our database for station/object AA6HF. If no packets are shown the sender has not sent any weather packets the latest 10 day(s).

<< 69 70 71 72 73 74 75 >>
Time Temp. Humidity Pressure Rain* Wind** Luminosity Snow
1788190704 32.22° C 28% 1008.4 hPa 0 mm - - -
1788190404 32.22° C 29% 1008.3 hPa 0 mm - - -
1788190104 31.67° C 30% 1008.4 hPa 0 mm - - -
1788189804 31.11° C 30% 1008.3 hPa 0 mm - - -
1788189511 30.56° C 32% 1008.3 hPa 0 mm - - -
1788189205 30.56° C 34% 1008.2 hPa 0 mm - - -
1788188905 30° C 35% 1008.2 hPa 0 mm - - -
1788188605 30° C 36% 1008.2 hPa 0 mm - - -
1788188305 29.44° C 37% 1008.1 hPa 0 mm - - -
1788188005 28.89° C 38% 1008.1 hPa 0 mm - - -
1788187705 28.33° C 40% 1008.1 hPa 0 mm - - -
1788187405 27.22° C 46% 1008.1 hPa 0 mm - - -
1788187105 26.11° C 48% 1008 hPa 0 mm - - -
1788186805 25.56° C 48% 1007.9 hPa 0 mm - - -
1788186505 25° C 51% 1008 hPa 0 mm - - -
1788186205 25° C 51% 1008 hPa 0 mm - - -
1788185905 24.44° C 52% 1007.8 hPa 0 mm - - -
1788185605 24.44° C 53% 1007.8 hPa 0 mm - - -
1788185305 24.44° C 53% 1007.7 hPa 0 mm - - -
1788185005 24.44° C 52% 1007.6 hPa 0 mm - - -
1788184705 24.44° C 52% 1007.5 hPa 0 mm - - -
1788184405 24.44° C 51% 1007.5 hPa 0 mm - - -
1788184105 24.44° C 50% 1007.4 hPa 0 mm - - -
1788183805 23.89° C 50% 1007.3 hPa 0 mm - - -
1788183505 24.44° C 50% 1007.3 hPa 0 mm - - -

* Rain latest hour (hover to see other rain measurements)
** Current wind speed in m/s (hover to see current wind gust speed)